Time;durP1;ratioP1;P1;durP2;ratioP2;P2;SDS_P1;SDS_P2;PMS_P1;PMS_P2;Temp;Humidity;BMP_temperature;BMP_pressure;BME280_temperature;BME280_humidity;BME280_pressure;Samples;Min_cycle;Max_cycle;Signal;HPM_P1;HPM_P2
2021/06/09 04:31:38;;;;;;;29.27;25.63;;;15.60;99.90;;;;;;5528986;22;20497;-78
2021/06/09 04:34:03;;;;;;;31.60;24.80;;;15.70;99.90;;;;;;5012610;28;20423;-81
2021/06/09 04:36:29;;;;;;;32.00;26.93;;;15.70;99.90;;;;;;5010959;28;20190;-79
2021/06/09 04:38:55;;;;;;;31.80;25.80;;;15.70;99.90;;;;;;5013354;28;20182;-79
2021/06/09 04:41:21;;;;;;;29.27;26.20;;;15.80;99.90;;;;;;5012677;28;20528;-78
2021/06/09 04:43:47;;;;;;;28.47;24.70;;;15.80;99.90;;;;;;5012364;28;20967;-79
2021/06/09 04:46:31;;;;;;;30.30;25.63;;;15.90;99.90;;;;;;5012374;28;20410;-78
2021/06/09 04:49:00;;;;;;;30.30;25.03;;;15.90;99.90;;;;;;5012976;28;20928;-79
2021/06/09 04:51:31;;;;;;;28.30;25.37;;;16.00;99.90;;;;;;5012775;28;20938;-78
2021/06/09 04:53:56;;;;;;;29.23;26.00;;;16.00;99.90;;;;;;5011986;28;20418;-78
2021/06/09 04:56:22;;;;;;;33.23;25.60;;;16.10;99.90;;;;;;5010921;28;20510;-79
2021/06/09 04:58:48;;;;;;;28.20;25.20;;;16.10;99.90;;;;;;5012195;28;20179;-79
2021/06/09 05:01:14;;;;;;;28.90;25.83;;;16.20;99.90;;;;;;5011879;28;20273;-76
2021/06/09 05:03:40;;;;;;;27.83;24.10;;;16.30;99.90;;;;;;5011410;28;20175;-76
2021/06/09 05:06:05;;;;;;;28.70;25.60;;;16.40;99.90;;;;;;5011979;28;20432;-75
2021/06/09 05:08:31;;;;;;;33.57;26.60;;;16.50;99.90;;;;;;5011542;28;20643;-76
2021/06/09 05:10:58;;;;;;;27.17;24.33;;;16.50;99.90;;;;;;5010926;28;20205;-75
2021/06/09 05:13:29;;;;;;;28.03;25.23;;;16.50;99.90;;;;;;5011250;28;20222;-76
2021/06/09 05:16:00;;;;;;;28.97;25.87;;;16.60;99.90;;;;;;5011724;28;20456;-76
2021/06/09 05:18:28;;;;;;;32.27;26.13;;;16.60;99.90;;;;;;5011339;28;20452;-76
2021/06/09 05:20:54;;;;;;;29.10;26.00;;;16.70;99.90;;;;;;5011371;28;20957;-76
2021/06/09 05:23:33;;;;;;;32.30;27.40;;;16.80;99.90;;;;;;5009739;28;20475;-76
2021/06/09 05:26:00;;;;;;;29.17;24.80;;;16.90;99.90;;;;;;5010165;28;20420;-76
2021/06/09 05:28:29;;;;;;;28.80;25.60;;;17.00;99.90;;;;;;5011345;28;20424;-76
2021/06/09 05:30:56;;;;;;;27.97;25.07;;;17.10;99.90;;;;;;5012613;28;20441;-76
2021/06/09 05:33:23;;;;;;;28.67;24.13;;;17.20;99.90;;;;;;5014996;28;20437;-76
2021/06/09 05:35:52;;;;;;;26.70;23.87;;;17.20;99.90;;;;;;5015415;28;20461;-76
2021/06/09 05:38:19;;;;;;;27.67;23.03;;;17.30;99.90;;;;;;5015272;28;20408;-76
2021/06/09 05:40:45;;;;;;;25.67;23.07;;;17.50;99.90;;;;;;4997686;28;20503;-76
2021/06/09 05:43:11;;;;;;;27.37;24.47;;;17.60;99.90;;;;;;5015019;28;20504;-76
2021/06/09 05:45:38;;;;;;;24.93;22.47;;;17.70;99.90;;;;;;5015066;28;20517;-76
2021/06/09 05:48:05;;;;;;;28.40;23.70;;;17.80;99.90;;;;;;5015580;28;20788;-76
2021/06/09 05:50:31;;;;;;;29.30;24.77;;;17.90;99.90;;;;;;4997503;28;20425;-75
2021/06/09 05:52:59;;;;;;;25.87;22.47;;;18.00;99.90;;;;;;5015047;28;20424;-76
2021/06/09 05:55:27;;;;;;;24.80;22.30;;;18.20;99.90;;;;;;5014911;28;20503;-76
2021/06/09 05:57:55;;;;;;;23.23;20.80;;;18.30;99.90;;;;;;5015218;28;20413;-76
2021/06/09 06:00:23;;;;;;;22.23;19.97;;;18.40;99.90;;;;;;5014906;28;20896;-75
2021/06/09 06:02:50;;;;;;;22.00;19.77;;;18.70;99.90;;;;;;5014616;28;20476;-75
2021/06/09 06:05:17;;;;;;;22.73;20.03;;;18.90;99.90;;;;;;5014670;28;20424;-75
2021/06/09 06:07:43;;;;;;;20.00;18.10;;;19.10;99.90;;;;;;5015215;28;20416;-75
2021/06/09 06:10:09;;;;;;;23.07;19.00;;;19.30;99.90;;;;;;5015016;28;20421;-75
2021/06/09 06:12:36;;;;;;;26.20;18.47;;;19.40;99.90;;;;;;5014443;28;20957;-73
2021/06/09 06:15:05;;;;;;;20.40;18.37;;;19.60;99.90;;;;;;5014699;28;20553;-75
2021/06/09 06:17:31;;;;;;;21.37;19.07;;;19.70;99.90;;;;;;5014624;28;20424;-76
2021/06/09 06:19:57;;;;;;;20.80;18.80;;;19.90;99.90;;;;;;5014865;28;20498;-75
2021/06/09 06:22:23;;;;;;;20.70;18.00;;;20.30;99.90;;;;;;5014640;28;20681;-75
2021/06/09 06:24:50;;;;;;;20.30;18.40;;;20.70;99.90;;;;;;5014497;28;20413;-75
2021/06/09 06:27:18;;;;;;;21.30;19.10;;;20.80;99.90;;;;;;5014449;28;20591;-75
2021/06/09 06:29:45;;;;;;;20.17;18.07;;;20.80;99.90;;;;;;5014470;28;20413;-75
2021/06/09 06:32:14;;;;;;;20.87;18.83;;;20.70;99.90;;;;;;5013565;28;20811;-73
2021/06/09 06:34:43;;;;;;;19.87;17.97;;;20.60;99.90;;;;;;5014048;28;20535;-75
2021/06/09 06:37:09;;;;;;;18.47;16.77;;;20.60;99.90;;;;;;5013376;28;20807;-75
2021/06/09 06:39:36;;;;;;;20.20;18.03;;;20.60;99.90;;;;;;5014232;28;20493;-74
2021/06/09 06:42:02;;;;;;;21.10;18.77;;;20.60;99.90;;;;;;5013674;28;20973;-76
2021/06/09 06:44:28;;;;;;;24.63;20.27;;;20.60;99.90;;;;;;5013427;28;20479;-75
2021/06/09 06:46:54;;;;;;;19.87;18.00;;;20.50;99.90;;;;;;5014186;28;20505;-75
2021/06/09 06:49:19;;;;;;;20.33;18.33;;;20.40;99.90;;;;;;5013984;28;20179;-75
2021/06/09 06:51:51;;;;;;;20.23;17.13;;;20.50;99.90;;;;;;5014003;28;20566;-74
2021/06/09 06:54:18;;;;;;;19.33;17.13;;;20.50;99.90;;;;;;5013476;28;20178;-75
2021/06/09 06:56:44;;;;;;;20.27;18.47;;;20.60;99.90;;;;;;5013936;28;20449;-75
2021/06/09 06:59:10;;;;;;;21.03;18.90;;;20.60;99.90;;;;;;5013824;28;20406;-74
2021/06/09 07:01:37;;;;;;;19.87;17.97;;;20.60;99.90;;;;;;5013921;28;20285;-75
2021/06/09 07:04:04;;;;;;;19.30;17.30;;;20.70;99.90;;;;;;5013610;28;20171;-75
2021/06/09 07:06:32;;;;;;;19.03;17.27;;;20.70;99.90;;;;;;5013912;28;20413;-75
2021/06/09 07:08:59;;;;;;;18.80;17.00;;;21.10;99.90;;;;;;5013742;28;20488;-75
2021/06/09 07:11:24;;;;;;;18.10;16.27;;;21.60;99.90;;;;;;5013509;28;20492;-74
2021/06/09 07:13:52;;;;;;;18.57;16.67;;;22.20;99.90;;;;;;5013310;28;20410;-74
2021/06/09 07:16:19;;;;;;;18.07;16.37;;;22.40;99.90;;;;;;5013526;28;20294;-75
2021/06/09 07:18:46;;;;;;;17.60;16.10;;;22.80;99.90;;;;;;5013457;28;20410;-74
2021/06/09 07:21:16;;;;;;;17.83;15.50;;;22.90;99.90;;;;;;5013281;28;20421;-74
2021/06/09 07:23:43;;;;;;;15.53;14.00;;;23.70;99.90;;;;;;5013030;28;20513;-75
2021/06/09 07:26:10;;;;;;;20.70;18.67;;;24.00;99.90;;;;;;5013202;28;20931;-75
2021/06/09 07:28:44;;;;;;;16.57;15.10;;;24.40;99.90;;;;;;5013350;28;20412;-75
2021/06/09 07:31:12;;;;;;;18.13;15.93;;;24.20;99.90;;;;;;5013088;28;20495;-75
2021/06/09 07:33:39;;;;;;;18.33;16.37;;;24.00;99.90;;;;;;5013046;28;20425;-74
2021/06/09 07:36:08;;;;;;;15.87;14.40;;;24.10;99.90;;;;;;5013071;28;20472;-75
2021/06/09 07:38:43;;;;;;;15.97;14.57;;;23.90;99.90;;;;;;5012970;28;20406;-75
2021/06/09 07:41:10;;;;;;;18.47;16.77;;;24.00;99.90;;;;;;5013130;28;20440;-75
2021/06/09 07:43:40;;;;;;;19.13;15.80;;;23.80;99.90;;;;;;5012687;28;20417;-75
2021/06/09 07:46:08;;;;;;;16.70;15.20;;;23.70;99.90;;;;;;5013143;28;20648;-74
2021/06/09 07:48:35;;;;;;;17.87;16.17;;;23.70;99.90;;;;;;5012772;28;20417;-75
2021/06/09 07:51:11;;;;;;;17.23;15.73;;;23.60;99.90;;;;;;5012935;28;20953;-75
2021/06/09 07:53:39;;;;;;;16.47;14.77;;;23.60;99.90;;;;;;5012221;28;20470;-75
2021/06/09 07:56:06;;;;;;;18.10;15.93;;;24.00;99.90;;;;;;5012812;28;20531;-75
2021/06/09 07:58:33;;;;;;;18.10;16.43;;;24.30;99.90;;;;;;5012697;28;20933;-74
2021/06/09 08:01:00;;;;;;;17.13;15.53;;;24.50;99.90;;;;;;5012759;28;20434;-74
2021/06/09 08:03:28;;;;;;;18.67;16.77;;;24.80;99.90;;;;;;5012244;28;20445;-74
2021/06/09 08:05:56;;;;;;;19.33;17.57;;;24.70;99.90;;;;;;5012527;28;20424;-75
2021/06/09 08:08:22;;;;;;;17.40;15.63;;;24.80;99.90;;;;;;5012498;28;20417;-74
2021/06/09 08:10:48;;;;;;;18.13;16.37;;;25.20;99.90;;;;;;4995081;28;20452;-75
2021/06/09 08:13:14;;;;;;;17.90;16.23;;;25.80;99.90;;;;;;5012241;28;20424;-75
2021/06/09 08:15:40;;;;;;;16.23;14.60;;;26.30;99.90;;;;;;5012412;28;20237;-74
2021/06/09 08:18:07;;;;;;;17.10;15.60;;;26.40;99.90;;;;;;5012461;28;20284;-74
2021/06/09 08:20:44;;;;;;;18.07;16.23;;;26.20;99.90;;;;;;5012112;28;20405;-75
2021/06/09 08:23:09;;;;;;;18.53;16.83;;;25.70;99.90;;;;;;4994482;28;20501;-75
2021/06/09 08:25:35;;;;;;;19.27;17.37;;;25.20;99.90;;;;;;5012345;28;20416;-74
2021/06/09 08:28:01;;;;;;;19.17;17.20;;;25.20;99.90;;;;;;5012255;28;20178;-74
2021/06/09 08:30:27;;;;;;;18.60;16.70;;;25.30;99.90;;;;;;5012251;28;20171;-73
2021/06/09 08:32:53;;;;;;;18.60;17.00;;;26.00;99.90;;;;;;5011858;28;20495;-74
2021/06/09 08:35:18;;;;;;;20.07;16.50;;;26.60;99.90;;;;;;5012043;28;20205;-75
2021/06/09 08:37:44;;;;;;;18.00;16.43;;;27.00;99.90;;;;;;5010763;28;20178;-74
2021/06/09 08:40:12;;;;;;;18.43;16.63;;;27.30;99.90;;;;;;5012238;28;20594;-74
2021/06/09 08:42:39;;;;;;;16.87;15.37;;;28.00;99.90;;;;;;5011916;28;20630;-75
2021/06/09 08:45:07;;;;;;;17.93;16.20;;;28.20;99.90;;;;;;5012106;28;20922;-74
2021/06/09 08:47:35;;;;;;;17.03;15.60;;;27.80;99.90;;;;;;5012082;28;20428;-75
2021/06/09 08:50:06;;;;;;;17.93;16.23;;;27.60;99.90;;;;;;5011926;28;20416;-73
2021/06/09 08:52:32;;;;;;;18.00;16.30;;;27.40;99.90;;;;;;5011925;28;20802;-74
2021/06/09 08:54:59;;;;;;;18.07;16.27;;;27.50;99.90;;;;;;5012008;28;20947;-75
2021/06/09 08:57:27;;;;;;;16.60;15.00;;;27.80;99.90;;;;;;5010766;28;20452;-74
2021/06/09 08:59:52;;;;;;;16.87;15.47;;;28.30;99.90;;;;;;5012168;28;20452;-74
2021/06/09 09:02:18;;;;;;;17.00;15.50;;;28.60;99.90;;;;;;5011870;28;20469;-75
2021/06/09 09:04:43;;;;;;;17.40;15.77;;;29.00;99.90;;;;;;5012324;28;20186;-75
2021/06/09 09:07:10;;;;;;;16.37;15.03;;;29.20;99.90;;;;;;5010292;28;20182;-74
2021/06/09 09:09:37;;;;;;;19.57;17.77;;;29.80;99.90;;;;;;5012072;28;20182;-75
2021/06/09 09:12:06;;;;;;;16.17;14.77;;;30.00;99.90;;;;;;5011595;28;20441;-75
2021/06/09 09:14:32;;;;;;;18.50;16.90;;;30.10;99.90;;;;;;5011504;28;20547;-75
2021/06/09 09:17:12;;;;;;;17.67;16.17;;;30.00;99.90;;;;;;5011775;28;20446;-74
2021/06/09 09:19:41;;;;;;;17.03;15.33;;;30.30;99.90;;;;;;5011716;28;20660;-75
2021/06/09 09:22:08;;;;;;;17.77;15.97;;;30.20;99.90;;;;;;5011496;28;20438;-75
2021/06/09 09:24:39;;;;;;;16.50;15.10;;;30.30;99.90;;;;;;5011147;28;20513;-75
2021/06/09 09:27:05;;;;;;;16.57;14.87;;;30.10;99.90;;;;;;5011394;28;20794;-74
2021/06/09 09:29:31;;;;;;;17.67;16.27;;;30.60;99.90;;;;;;5011624;28;20442;-75
2021/06/09 09:32:05;;;;;;;17.63;15.80;;;30.60;99.90;;;;;;5011226;28;20461;-75
2021/06/09 09:34:34;;;;;;;16.50;15.17;;;29.90;99.90;;;;;;5011092;28;20210;-75
2021/06/09 09:37:20;;;;;;;16.20;14.70;;;29.50;99.90;;;;;;5011555;28;20965;-75
2021/06/09 09:40:17;;;;;;;22.33;16.93;;;28.90;99.90;;;;;;5011246;28;20468;-75
2021/06/09 09:42:50;;;;;;;16.83;15.43;;;28.40;99.90;;;;;;5004813;28;20468;-74
2021/06/09 09:45:22;;;;;;;17.57;16.03;;;27.90;99.90;;;;;;5011191;28;20418;-75
2021/06/09 09:48:17;;;;;;;18.67;16.60;;;27.80;99.90;;;;;;5011463;28;20417;-75
2021/06/09 09:50:44;;;;;;;21.77;19.80;;;27.30;99.90;;;;;;5011266;28;20450;-75
2021/06/09 09:53:22;;;;;;;19.60;17.53;;;26.80;99.90;;;;;;5011368;28;20500;-74
2021/06/09 09:55:58;;;;;;;19.70;18.03;;;27.00;99.90;;;;;;4995191;28;20472;-75
2021/06/09 09:58:26;;;;;;;18.03;15.40;;;27.70;99.90;;;;;;5008866;28;20417;-74
2021/06/09 10:00:51;;;;;;;16.63;14.80;;;28.80;99.90;;;;;;5010019;28;20521;-75
2021/06/09 10:03:19;;;;;;;18.63;16.93;;;29.30;99.90;;;;;;5009387;28;20480;-74
2021/06/09 10:05:46;;;;;;;18.90;17.20;;;28.70;99.90;;;;;;5010891;28;20261;-75
2021/06/09 10:08:12;;;;;;;18.13;16.57;;;28.50;99.90;;;;;;5011403;28;20424;-76
2021/06/09 10:10:38;;;;;;;17.20;15.80;;;28.10;99.90;;;;;;5010989;28;20405;-75
2021/06/09 10:13:11;;;;;;;20.57;18.77;;;28.30;99.90;;;;;;5010949;28;20179;-75
2021/06/09 10:15:47;;;;;;;21.77;18.10;;;28.00;99.90;;;;;;5011030;28;20222;-74
2021/06/09 10:18:24;;;;;;;20.90;17.97;;;28.30;99.90;;;;;;5012426;28;20432;-76
2021/06/09 10:20:50;;;;;;;19.43;17.60;;;29.00;99.90;;;;;;5015313;28;20769;-74
2021/06/09 10:23:57;;;;;;;18.70;16.87;;;29.40;99.90;;;;;;5015485;28;20492;-74
2021/06/09 10:26:22;;;;;;;20.77;18.87;;;30.10;99.90;;;;;;4958734;28;20434;-75
2021/06/09 10:29:07;;;;;;;21.83;19.50;;;30.50;99.90;;;;;;5008295;28;20429;-75
2021/06/09 10:31:38;;;;;;;20.13;18.33;;;30.60;99.90;;;;;;5014378;28;20214;-74
2021/06/09 10:34:04;;;;;;;22.43;20.27;;;31.00;99.90;;;;;;5014172;28;20410;-74
2021/06/09 10:36:33;;;;;;;22.30;18.70;;;31.20;99.90;;;;;;5014273;28;20544;-75
2021/06/09 10:38:59;;;;;;;19.10;17.30;;;31.00;99.90;;;;;;5012022;28;20810;-74
2021/06/09 10:41:28;;;;;;;18.33;16.70;;;31.40;99.90;;;;;;5013747;28;20439;-74
2021/06/09 10:43:56;;;;;;;18.93;17.13;;;31.80;99.90;;;;;;5012218;28;20175;-74
2021/06/09 10:46:25;;;;;;;19.50;17.47;;;31.80;99.90;;;;;;5014146;28;20409;-74
2021/06/09 10:48:55;;;;;;;20.13;17.90;;;32.10;99.90;;;;;;5014596;28;20410;-75
2021/06/09 10:51:21;;;;;;;24.43;22.10;;;31.60;99.90;;;;;;5013922;28;20472;-75
2021/06/09 10:53:48;;;;;;;20.10;18.03;;;30.80;99.90;;;;;;5013955;28;20496;-75
2021/06/09 10:56:15;;;;;;;19.50;17.43;;;30.60;99.90;;;;;;5013928;28;20592;-75
2021/06/09 10:58:40;;;;;;;20.57;18.53;;;30.30;99.90;;;;;;5014111;28;20420;-74
2021/06/09 11:01:07;;;;;;;21.33;19.13;;;29.90;99.90;;;;;;5013637;28;20429;-74
2021/06/09 11:03:37;;;;;;;21.50;19.40;;;29.40;99.90;;;;;;5013705;28;20170;-75
2021/06/09 11:06:04;;;;;;;17.10;15.63;;;29.00;99.90;;;;;;5014005;28;20776;-75
2021/06/09 11:08:30;;;;;;;18.97;17.00;;;28.60;99.90;;;;;;5013589;28;20410;-74
2021/06/09 11:10:57;;;;;;;18.20;16.43;;;28.60;99.90;;;;;;5013775;28;20516;-75
2021/06/09 11:13:29;;;;;;;17.60;15.90;;;29.00;99.90;;;;;;5013290;28;20499;-73
2021/06/09 11:16:05;;;;;;;18.33;16.40;;;29.10;99.90;;;;;;5013631;28;20464;-75
2021/06/09 11:18:36;;;;;;;18.67;16.73;;;28.80;99.90;;;;;;5013485;28;20432;-74
2021/06/09 11:21:02;;;;;;;18.00;16.47;;;28.70;99.90;;;;;;5013451;28;20429;-74
2021/06/09 11:23:32;;;;;;;14.90;13.50;;;28.90;99.90;;;;;;5012886;28;20410;-73
2021/06/09 11:25:58;;;;;;;16.93;15.43;;;28.50;99.90;;;;;;5013406;28;20423;-75
2021/06/09 11:28:32;;;;;;;16.33;14.73;;;28.40;99.90;;;;;;5013083;28;20931;-75
2021/06/09 11:31:20;;;;;;;15.87;14.40;;;28.70;99.90;;;;;;5013209;28;20197;-75
2021/06/09 11:34:03;;;;;;;16.47;15.13;;;29.00;99.90;;;;;;5013225;28;20587;-74
2021/06/09 11:36:34;;;;;;;17.40;15.80;;;29.00;99.90;;;;;;5013189;28;20518;-74
2021/06/09 11:39:29;;;;;;;15.30;14.00;;;28.50;99.90;;;;;;5013286;28;20401;-75
2021/06/09 11:41:55;;;;;;;14.10;12.90;;;28.30;99.90;;;;;;4996312;28;20534;-74
2021/06/09 11:44:27;;;;;;;13.63;12.40;;;27.90;99.90;;;;;;5013005;28;20930;-74
2021/06/09 11:46:53;;;;;;;14.07;12.87;;;27.80;99.90;;;;;;4995623;28;20410;-75
2021/06/09 11:49:25;;;;;;;12.73;11.83;;;27.70;99.90;;;;;;5012803;28;20579;-75
2021/06/09 11:51:59;;;;;;;13.33;12.23;;;27.70;99.90;;;;;;5013094;28;20539;-75
2021/06/09 11:54:29;;;;;;;14.57;13.20;;;27.60;99.90;;;;;;5012749;28;20784;-76
2021/06/09 11:57:17;;;;;;;14.20;13.00;;;27.70;99.90;;;;;;5013068;28;20445;-75
2021/06/09 11:59:42;;;;;;;15.17;13.80;;;27.60;99.90;;;;;;5012971;28;20406;-75
2021/06/09 12:02:26;;;;;;;14.10;12.60;;;27.40;99.90;;;;;;5012646;28;20421;-75
2021/06/09 12:04:53;;;;;;;16.03;14.47;;;27.20;99.90;;;;;;5013185;28;20675;-75
2021/06/09 12:07:31;;;;;;;14.67;13.47;;;27.00;99.90;;;;;;5013215;28;20821;-75
2021/06/09 12:09:59;;;;;;;17.40;15.80;;;26.80;99.90;;;;;;4995154;28;20429;-75
2021/06/09 12:12:27;;;;;;;17.10;15.50;;;26.70;99.90;;;;;;5012607;28;21060;-74
2021/06/09 12:15:00;;;;;;;17.13;15.53;;;26.80;99.90;;;;;;5012201;28;20492;-74
2021/06/09 12:17:35;;;;;;;16.53;14.93;;;26.90;99.90;;;;;;5012662;28;20468;-74
2021/06/09 12:20:03;;;;;;;17.43;15.93;;;27.10;99.90;;;;;;4994526;28;20421;-75
2021/06/09 12:22:31;;;;;;;18.30;16.47;;;27.40;99.90;;;;;;5012415;28;20430;-74
2021/06/09 12:25:01;;;;;;;14.03;12.83;;;27.70;99.90;;;;;;5012332;28;20413;-74
2021/06/09 12:27:28;;;;;;;13.53;12.37;;;27.90;99.90;;;;;;5012338;28;20945;-74
2021/06/09 12:29:54;;;;;;;17.13;12.43;;;28.00;99.90;;;;;;5013204;28;20414;-75
2021/06/09 12:32:26;;;;;;;12.90;11.80;;;28.20;99.90;;;;;;5011997;28;20463;-74
2021/06/09 12:34:56;;;;;;;12.47;11.30;;;28.20;99.90;;;;;;5012072;28;20449;-75
2021/06/09 12:37:23;;;;;;;13.57;12.57;;;28.40;99.90;;;;;;5012190;28;20418;-75
2021/06/09 12:40:03;;;;;;;14.33;13.23;;;28.20;99.90;;;;;;5009533;28;20410;-74
2021/06/09 12:42:29;;;;;;;13.93;12.57;;;28.30;99.90;;;;;;5011250;28;20827;-74
2021/06/09 12:44:56;;;;;;;13.60;12.43;;;28.40;99.90;;;;;;5011055;28;20417;-76
2021/06/09 12:47:35;;;;;;;10.70;9.80;;;28.50;99.90;;;;;;5011814;28;20535;-75
2021/06/09 12:50:16;;;;;;;10.53;9.73;;;28.00;99.90;;;;;;5011967;28;20496;-74
2021/06/09 12:52:44;;;;;;;8.53;7.83;;;27.90;99.90;;;;;;5011754;28;20480;-74
2021/06/09 12:55:25;;;;;;;8.10;7.50;;;27.90;99.90;;;;;;5011659;28;20468;-74
2021/06/09 12:57:53;;;;;;;8.47;7.80;;;28.10;99.90;;;;;;5012017;28;20543;-74
2021/06/09 13:00:37;;;;;;;9.13;8.50;;;28.00;99.90;;;;;;5011622;28;20429;-74
2021/06/09 13:03:16;;;;;;;10.47;9.67;;;28.10;99.90;;;;;;5011676;28;20441;-74
2021/06/09 13:05:50;;;;;;;10.10;9.30;;;28.20;99.90;;;;;;5011655;28;20790;-75
2021/06/09 13:08:18;;;;;;;9.40;8.57;;;28.40;99.90;;;;;;5011769;28;20453;-74
2021/06/09 13:10:45;;;;;;;7.27;6.67;;;28.40;99.90;;;;;;5011678;28;20429;-74
2021/06/09 13:13:13;;;;;;;7.90;7.30;;;28.50;99.90;;;;;;5011472;28;20409;-74
2021/06/09 13:15:49;;;;;;;7.77;7.20;;;28.30;99.90;;;;;;5011652;28;20519;-75
2021/06/09 13:18:15;;;;;;;7.00;6.30;;;27.80;99.90;;;;;;5011584;28;20940;-75
2021/06/09 13:20:40;;;;;;;7.40;6.90;;;27.40;99.90;;;;;;5011372;28;20410;-75
2021/06/09 13:23:08;;;;;;;8.10;7.30;;;26.80;99.90;;;;;;5011574;28;20202;-76
2021/06/09 13:25:34;;;;;;;8.77;7.97;;;26.40;99.90;;;;;;4993842;28;20198;-76
2021/06/09 13:28:00;;;;;;;8.00;7.30;;;26.40;99.90;;;;;;5011608;28;20768;-77
2021/06/09 13:30:27;;;;;;;7.10;6.60;;;26.40;99.90;;;;;;5011388;28;20429;-74
2021/06/09 13:32:53;;;;;;;6.40;6.00;;;26.30;99.90;;;;;;5011223;28;20210;-75
2021/06/09 13:35:20;;;;;;;6.23;5.80;;;26.30;99.90;;;;;;5011172;28;20481;-75
2021/06/09 13:37:52;;;;;;;7.50;6.83;;;26.20;99.90;;;;;;5011611;28;20417;-75
2021/06/09 13:40:22;;;;;;;7.23;6.53;;;26.00;99.90;;;;;;5011216;28;20500;-74
2021/06/09 13:43:02;;;;;;;6.03;5.50;;;25.70;99.90;;;;;;5011436;28;20942;-75
2021/06/09 13:45:31;;;;;;;8.50;5.57;;;25.50;99.90;;;;;;5011250;28;20413;-75
2021/06/09 13:48:12;;;;;;;9.07;7.00;;;25.20;99.90;;;;;;4993950;28;20464;-75
2021/06/09 13:50:40;;;;;;;7.80;7.10;;;24.90;99.90;;;;;;5011293;28;20516;-74
2021/06/09 13:53:09;;;;;;;7.80;7.30;;;24.50;99.90;;;;;;5014215;28;20424;-74
2021/06/09 13:55:44;;;;;;;8.70;7.37;;;24.20;99.90;;;;;;5015013;28;20461;-73
2021/06/09 13:58:33;;;;;;;9.27;8.30;;;24.00;99.90;;;;;;5014964;28;20404;-74
2021/06/09 14:01:15;;;;;;;9.53;7.60;;;23.70;99.90;;;;;;5014981;28;20843;-74
2021/06/09 14:03:41;;;;;;;10.27;9.37;;;23.30;99.90;;;;;;5014726;28;20416;-77
2021/06/09 14:06:14;;;;;;;9.83;9.07;;;23.20;99.90;;;;;;5014770;28;20789;-76
2021/06/09 14:08:40;;;;;;;8.90;8.30;;;22.90;99.90;;;;;;5014950;28;20457;-75
2021/06/09 14:11:06;;;;;;;9.00;8.40;;;22.80;99.90;;;;;;5014759;28;20472;-73
2021/06/09 14:13:32;;;;;;;9.10;8.37;;;22.60;99.90;;;;;;5014880;28;20182;-77
2021/06/09 14:16:00;;;;;;;10.00;9.00;;;22.50;99.90;;;;;;5014689;28;20209;-74
2021/06/09 14:18:37;;;;;;;11.20;9.47;;;22.50;99.90;;;;;;5014331;28;20413;-75
2021/06/09 14:21:07;;;;;;;10.90;9.90;;;22.50;99.90;;;;;;5014730;28;20429;-76
2021/06/09 14:23:38;;;;;;;10.20;9.20;;;22.60;99.90;;;;;;5014218;28;20491;-75
2021/06/09 14:26:08;;;;;;;9.90;9.10;;;22.80;99.90;;;;;;5014735;28;20424;-76
2021/06/09 14:28:39;;;;;;;9.47;8.43;;;22.80;99.90;;;;;;5014699;28;20505;-75
2021/06/09 14:31:22;;;;;;;8.90;8.00;;;23.10;99.90;;;;;;4997751;28;20483;-75
2021/06/09 14:33:55;;;;;;;9.10;8.20;;;23.20;99.90;;;;;;5033903;28;20425;-74
2021/06/09 14:36:46;;;;;;;8.03;7.23;;;23.30;99.90;;;;;;5034217;28;20496;-75
2021/06/09 14:39:11;;;;;;;7.87;7.20;;;23.20;99.90;;;;;;5033920;28;20429;-75
2021/06/09 14:41:40;;;;;;;8.37;7.73;;;23.10;99.90;;;;;;5020727;28;20524;-75
2021/06/09 14:44:09;;;;;;;7.57;7.00;;;23.00;99.90;;;;;;5013669;28;20408;-74
2021/06/09 14:46:53;;;;;;;8.07;7.47;;;23.00;99.90;;;;;;5014148;28;20413;-75
2021/06/09 14:49:35;;;;;;;8.90;8.10;;;23.10;99.90;;;;;;5014129;28;20417;-75
2021/06/09 14:52:22;;;;;;;7.30;6.80;;;23.00;99.90;;;;;;5013738;28;20525;-74
2021/06/09 14:54:52;;;;;;;8.07;6.63;;;23.00;99.90;;;;;;5013131;28;20464;-75
2021/06/09 14:57:19;;;;;;;7.60;7.00;;;23.00;99.90;;;;;;5013790;28;20417;-72
2021/06/09 14:59:54;;;;;;;6.93;6.33;;;22.90;99.90;;;;;;5013886;28;20413;-73
2021/06/09 15:02:21;;;;;;;8.20;7.50;;;22.80;99.90;;;;;;5013613;28;20515;-73
2021/06/09 15:04:47;;;;;;;6.70;6.10;;;22.70;99.90;;;;;;5013131;28;20418;-73
2021/06/09 15:07:12;;;;;;;6.87;6.37;;;22.60;99.90;;;;;;5013704;28;20505;-73
2021/06/09 15:09:38;;;;;;;8.27;7.63;;;22.40;99.90;;;;;;5013870;28;20497;-73
2021/06/09 15:12:05;;;;;;;8.03;7.20;;;22.40;99.90;;;;;;5013674;28;20201;-74
2021/06/09 15:14:30;;;;;;;14.17;7.30;;;22.40;99.90;;;;;;5012949;28;20644;-75
2021/06/09 15:16:56;;;;;;;8.70;7.90;;;22.30;99.90;;;;;;5013702;28;20465;-73
2021/06/09 15:19:21;;;;;;;11.90;8.13;;;22.30;99.90;;;;;;5013486;28;20250;-72
2021/06/09 15:21:47;;;;;;;9.17;8.23;;;22.30;99.90;;;;;;5013613;28;20634;-72
2021/06/09 15:24:13;;;;;;;10.47;8.23;;;22.30;99.90;;;;;;5012828;28;20710;-75
2021/06/09 15:26:38;;;;;;;8.27;7.57;;;22.20;99.90;;;;;;5013499;28;20174;-73
2021/06/09 15:29:07;;;;;;;11.20;9.00;;;22.30;99.90;;;;;;5013444;28;20187;-74
2021/06/09 15:31:34;;;;;;;10.20;8.63;;;22.40;99.90;;;;;;5013121;28;20211;-73
2021/06/09 15:34:00;;;;;;;9.90;9.00;;;22.40;99.90;;;;;;5013410;28;20933;-72
2021/06/09 15:36:26;;;;;;;11.47;10.37;;;22.50;99.90;;;;;;5013082;28;20457;-72
2021/06/09 15:38:52;;;;;;;11.57;9.30;;;22.60;99.90;;;;;;4995763;28;20185;-73
2021/06/09 15:41:17;;;;;;;11.93;9.73;;;22.70;99.90;;;;;;5012928;28;20199;-69
2021/06/09 15:43:43;;;;;;;11.30;10.33;;;22.90;99.90;;;;;;5012920;28;20418;-72
2021/06/09 15:46:08;;;;;;;11.47;10.23;;;23.00;99.90;;;;;;5013161;28;20190;-72
2021/06/09 15:48:34;;;;;;;9.50;8.70;;;23.10;99.90;;;;;;5012997;28;20187;-72
2021/06/09 15:51:01;;;;;;;11.93;10.80;;;23.20;99.90;;;;;;5013036;28;20203;-72
2021/06/09 15:53:27;;;;;;;10.47;9.40;;;23.30;99.90;;;;;;5012687;28;20313;-72
2021/06/09 15:55:53;;;;;;;10.70;9.70;;;23.20;99.90;;;;;;5012963;28;21025;-72
2021/06/09 15:58:19;;;;;;;14.63;10.00;;;23.30;99.90;;;;;;5012672;28;20424;-73
2021/06/09 16:00:44;;;;;;;9.37;8.57;;;23.20;99.90;;;;;;5012936;28;20421;-71
2021/06/09 16:03:10;;;;;;;8.33;7.63;;;23.20;99.90;;;;;;5012486;28;20663;-72
2021/06/09 16:05:39;;;;;;;10.33;7.87;;;23.10;99.90;;;;;;5012531;28;20722;-72
2021/06/09 16:08:06;;;;;;;9.00;8.30;;;23.10;99.90;;;;;;5012608;28;20178;-72
2021/06/09 16:10:33;;;;;;;9.23;8.30;;;23.10;99.90;;;;;;5012689;28;20773;-72
2021/06/09 16:12:59;;;;;;;8.83;8.03;;;23.00;99.90;;;;;;5012487;28;20414;-72
2021/06/09 16:15:24;;;;;;;8.73;8.03;;;23.00;99.90;;;;;;5011481;28;20483;-72
2021/06/09 16:17:50;;;;;;;11.30;8.67;;;22.90;99.90;;;;;;5012743;28;20186;-74
2021/06/09 16:20:16;;;;;;;8.40;7.70;;;22.80;99.90;;;;;;5012228;28;20261;-72
2021/06/09 16:22:41;;;;;;;12.87;11.70;;;22.80;99.90;;;;;;5012184;28;20237;-72
2021/06/09 16:25:08;;;;;;;8.97;8.03;;;22.80;99.90;;;;;;5012330;28;20210;-71
2021/06/09 16:27:34;;;;;;;9.00;8.10;;;22.80;99.90;;;;;;5011743;28;20252;-72
2021/06/09 16:30:01;;;;;;;9.40;8.60;;;22.70;99.90;;;;;;5012354;28;20413;-72
2021/06/09 16:32:27;;;;;;;9.93;9.13;;;22.60;99.90;;;;;;5012089;28;20465;-73
2021/06/09 16:34:52;;;;;;;8.97;8.17;;;22.50;99.90;;;;;;5012029;28;20549;-71
2021/06/09 16:37:18;;;;;;;9.33;8.63;;;22.50;99.90;;;;;;5012223;28;20182;-72
2021/06/09 16:39:44;;;;;;;8.83;8.13;;;22.50;99.90;;;;;;5012007;28;20177;-72
2021/06/09 16:42:10;;;;;;;9.00;8.20;;;22.40;99.90;;;;;;5011756;28;20255;-73
2021/06/09 16:44:35;;;;;;;10.50;9.40;;;22.40;99.90;;;;;;5011414;28;20167;-70
2021/06/09 16:47:01;;;;;;;9.53;8.80;;;22.40;99.90;;;;;;5012020;28;20191;-72
2021/06/09 16:49:27;;;;;;;11.50;9.03;;;22.50;99.90;;;;;;5011531;28;20179;-72
2021/06/09 16:51:55;;;;;;;9.63;8.83;;;22.60;99.90;;;;;;5011128;28;20281;-72
2021/06/09 16:59:50;;;;;;;10.07;9.17;;;22.70;99.90;;;;;;5012211;28;20408;-73
2021/06/09 17:02:16;;;;;;;9.93;8.83;;;22.80;99.90;;;;;;5011517;28;20432;-73
2021/06/09 17:04:41;;;;;;;9.90;9.10;;;22.80;99.90;;;;;;5011534;28;20413;-73
2021/06/09 17:07:07;;;;;;;9.97;9.07;;;22.80;99.90;;;;;;5011686;28;20262;-73
2021/06/09 17:09:32;;;;;;;10.68;9.60;;;22.80;99.90;;;;;;5010151;28;20437;-72
2021/06/09 17:11:58;;;;;;;9.40;8.63;;;22.70;99.90;;;;;;5011402;28;20199;-74
2021/06/09 17:14:24;;;;;;;7.73;7.13;;;22.70;99.90;;;;;;5010119;28;20171;-73
2021/06/09 17:16:50;;;;;;;9.40;8.13;;;22.80;99.90;;;;;;5011300;28;20265;-73
2021/06/09 17:19:16;;;;;;;9.50;8.53;;;22.80;99.90;;;;;;5011446;28;20213;-73